createdAt,value
2018-12-14T00:01:42.858Z,2.30
2018-12-14T00:04:12.752Z,2.30
2018-12-14T00:06:42.592Z,2.20
2018-12-14T00:09:10.744Z,2.30
2018-12-14T00:11:45.422Z,2.20
2018-12-14T00:14:09.664Z,2.20
2018-12-14T00:16:37.686Z,2.20
2018-12-14T00:19:05.769Z,2.20
2018-12-14T00:21:33.736Z,2.00
2018-12-14T00:24:01.664Z,2.20
2018-12-14T00:26:29.735Z,2.20
2018-12-14T00:28:57.762Z,2.20
2018-12-14T00:31:25.680Z,2.20
2018-12-14T00:33:54.180Z,2.20
2018-12-14T00:36:22.061Z,2.20
2018-12-14T00:38:50.188Z,2.20
2018-12-14T00:41:22.431Z,2.10
2018-12-14T00:43:50.462Z,2.10
2018-12-14T00:46:18.458Z,2.10
2018-12-14T00:48:46.760Z,2.10
2018-12-14T00:51:15.276Z,2.10
2018-12-14T00:53:43.188Z,2.10
2018-12-14T00:56:11.065Z,2.10
2018-12-14T00:58:38.860Z,2.10
2018-12-14T01:01:06.834Z,2.10
2018-12-14T01:03:35.036Z,2.00
2018-12-14T01:06:03.126Z,2.00
2018-12-14T01:08:31.086Z,2.00
2018-12-14T01:10:59.112Z,2.00
2018-12-14T01:13:27.023Z,2.00
2018-12-14T01:15:54.978Z,2.00
2018-12-14T01:18:22.857Z,2.00
2018-12-14T01:20:50.794Z,2.00
2018-12-14T01:23:18.813Z,1.90
2018-12-14T01:25:46.733Z,1.90
2018-12-14T01:28:14.999Z,1.90
2018-12-14T01:30:43.542Z,2.00
2018-12-14T01:33:11.428Z,2.00
2018-12-14T01:35:39.340Z,2.00
2018-12-14T01:38:07.859Z,2.00
2018-12-14T01:40:35.936Z,2.10
2018-12-14T01:43:04.096Z,2.10
2018-12-14T01:45:31.994Z,2.10
2018-12-14T01:47:59.848Z,2.10
2018-12-14T01:50:27.816Z,2.10
2018-12-14T01:53:02.599Z,2.10
2018-12-14T01:55:30.501Z,2.10
2018-12-14T01:57:58.684Z,2.20
2018-12-14T02:00:26.688Z,2.20
2018-12-14T02:02:54.634Z,2.20
2018-12-14T02:05:22.670Z,2.20
2018-12-14T02:07:50.545Z,2.20
2018-12-14T02:10:18.569Z,2.20
2018-12-14T02:12:46.526Z,2.30
2018-12-14T02:15:14.620Z,2.30
2018-12-14T02:17:42.563Z,2.30
2018-12-14T02:20:14.808Z,2.30
2018-12-14T02:22:44.023Z,2.30
2018-12-14T02:25:11.924Z,2.30
2018-12-14T02:27:43.951Z,2.30
2018-12-14T02:30:49.211Z,2.30
2018-12-14T02:33:17.060Z,2.30
2018-12-14T02:35:45.105Z,2.30
2018-12-14T02:38:13.484Z,2.30
2018-12-14T02:40:41.348Z,2.40
2018-12-14T02:43:09.184Z,2.30
2018-12-14T02:45:37.087Z,2.20
2018-12-14T02:48:04.969Z,2.20
2018-12-14T02:50:32.920Z,2.20
2018-12-14T02:53:00.769Z,2.20
2018-12-14T02:55:28.740Z,2.20
2018-12-14T02:57:56.696Z,2.20
2018-12-14T03:00:26.556Z,2.20
2018-12-14T03:03:00.543Z,2.20
2018-12-14T03:08:03.022Z,2.20
2018-12-14T03:10:32.137Z,2.20
2018-12-14T03:13:00.020Z,2.20
2018-12-14T03:15:27.865Z,2.20
2018-12-14T03:17:55.686Z,2.20
2018-12-14T03:20:24.825Z,2.20
2018-12-14T03:22:52.671Z,2.20
2018-12-14T03:25:20.563Z,2.20
2018-12-14T03:27:48.713Z,2.20
2018-12-14T03:30:16.567Z,2.20
2018-12-14T03:32:44.800Z,2.20
2018-12-14T03:35:13.048Z,2.20
2018-12-14T03:37:41.001Z,2.20
2018-12-14T03:40:08.997Z,2.20
2018-12-14T03:42:37.206Z,2.20
2018-12-14T03:45:05.536Z,2.10
2018-12-14T03:47:33.370Z,2.10
2018-12-14T03:50:01.290Z,2.10
2018-12-14T03:52:29.242Z,2.10
2018-12-14T03:54:57.093Z,2.10
2018-12-14T03:57:25.072Z,2.10
2018-12-14T03:59:52.886Z,2.10
2018-12-14T04:02:21.210Z,2.10
2018-12-14T04:04:49.204Z,2.10
2018-12-14T04:07:17.157Z,2.10
2018-12-14T04:09:45.117Z,2.10
2018-12-14T04:12:13.258Z,2.10
2018-12-14T04:14:41.230Z,2.20
2018-12-14T04:17:09.127Z,2.10
2018-12-14T04:19:37.016Z,2.20
2018-12-14T04:22:05.434Z,2.20
2018-12-14T04:24:33.272Z,2.20
2018-12-14T04:27:01.165Z,2.20
2018-12-14T04:29:29.077Z,2.20
2018-12-14T04:31:56.927Z,2.10
2018-12-14T04:34:24.922Z,2.10
2018-12-14T04:36:53.095Z,2.10
2018-12-14T04:39:22.906Z,2.10
2018-12-14T04:41:51.401Z,2.00
2018-12-14T04:44:19.259Z,2.00
2018-12-14T04:46:47.328Z,2.00
2018-12-14T04:49:15.238Z,1.90
2018-12-14T04:51:43.044Z,2.00
2018-12-14T04:54:10.849Z,1.90
2018-12-14T04:56:38.829Z,1.90
2018-12-14T04:59:06.668Z,1.90
2018-12-14T05:01:34.525Z,1.90
2018-12-14T05:04:02.440Z,1.90
2018-12-14T05:06:31.638Z,1.90
2018-12-14T05:08:59.733Z,1.80
2018-12-14T05:11:27.578Z,1.80
2018-12-14T05:13:55.451Z,1.80
2018-12-14T05:16:23.243Z,1.80
2018-12-14T05:18:51.028Z,1.80
2018-12-14T05:21:18.824Z,1.80
2018-12-14T05:23:46.929Z,1.80
2018-12-14T05:26:17.208Z,1.80
2018-12-14T05:28:45.295Z,1.80
2018-12-14T05:31:13.193Z,1.80
2018-12-14T05:33:41.057Z,1.70
2018-12-14T05:36:09.852Z,1.70
2018-12-14T05:38:37.682Z,1.70
2018-12-14T05:41:05.521Z,1.80
2018-12-14T05:43:33.421Z,1.70
2018-12-14T05:46:01.263Z,1.60
2018-12-14T05:48:29.157Z,1.60
2018-12-14T05:53:31.490Z,1.60
2018-12-14T05:55:59.334Z,1.60
2018-12-14T05:58:27.465Z,1.60
2018-12-14T06:00:55.348Z,1.60
2018-12-14T06:03:23.292Z,1.60
2018-12-14T06:05:51.125Z,1.50
2018-12-14T06:08:19.020Z,1.60
2018-12-14T06:10:46.904Z,1.60
2018-12-14T06:13:14.709Z,1.60
2018-12-14T06:15:45.324Z,1.60
2018-12-14T06:18:13.303Z,1.60
2018-12-14T06:20:41.081Z,1.50
2018-12-14T06:23:08.917Z,1.60
2018-12-14T06:25:37.218Z,1.60
2018-12-14T06:28:05.029Z,1.60
2018-12-14T06:30:32.923Z,1.60
2018-12-14T06:33:00.847Z,1.50
2018-12-14T06:35:28.702Z,1.60
2018-12-14T06:37:56.643Z,1.60
2018-12-14T06:40:24.491Z,1.50
2018-12-14T06:42:52.768Z,1.50
2018-12-14T06:45:20.724Z,1.50
2018-12-14T06:47:48.532Z,1.40
2018-12-14T06:50:16.540Z,1.40
2018-12-14T06:52:44.469Z,1.50
2018-12-14T06:55:12.370Z,1.40
2018-12-14T06:57:43.948Z,1.40
2018-12-14T07:00:11.918Z,1.40
2018-12-14T07:02:39.823Z,1.40
2018-12-14T07:05:07.745Z,1.40
2018-12-14T07:07:35.565Z,1.40
2018-12-14T07:10:03.840Z,1.40
2018-12-14T07:12:31.784Z,1.40
2018-12-14T07:14:59.617Z,1.40
2018-12-14T07:17:27.485Z,1.40
2018-12-14T07:19:55.317Z,1.40
2018-12-14T07:22:23.123Z,1.40
2018-12-14T07:24:50.905Z,1.50
2018-12-14T07:27:18.851Z,1.40
2018-12-14T07:29:46.710Z,1.40
2018-12-14T07:32:14.695Z,1.50
2018-12-14T07:34:42.501Z,1.60
2018-12-14T07:37:10.403Z,1.50
2018-12-14T07:39:38.399Z,1.40
2018-12-14T07:42:06.250Z,1.40
2018-12-14T07:44:34.184Z,1.40
2018-12-14T07:47:02.074Z,1.40
2018-12-14T07:49:30.206Z,1.40
2018-12-14T07:51:58.157Z,1.40
2018-12-14T07:54:26.055Z,1.40
2018-12-14T07:56:53.917Z,1.40
2018-12-14T07:59:21.849Z,1.40
2018-12-14T08:01:49.771Z,1.50
2018-12-14T08:04:17.734Z,1.60
2018-12-14T08:06:45.647Z,1.50
2018-12-14T08:09:14.047Z,1.50
2018-12-14T08:11:42.173Z,1.50
2018-12-14T08:14:09.957Z,1.50
2018-12-14T08:16:40.362Z,1.50
2018-12-14T08:21:43.129Z,1.60
2018-12-14T08:24:10.908Z,1.50
2018-12-14T08:26:38.717Z,1.50
2018-12-14T08:29:06.834Z,1.50
2018-12-14T08:31:34.652Z,1.50
2018-12-14T08:34:02.618Z,1.50
2018-12-14T08:36:30.549Z,1.50
2018-12-14T08:38:58.329Z,1.50
2018-12-14T08:41:27.528Z,1.50
2018-12-14T08:43:55.906Z,1.50
2018-12-14T08:46:23.948Z,1.50
2018-12-14T08:48:52.117Z,1.50
2018-12-14T08:51:23.041Z,1.50
2018-12-14T08:53:51.467Z,1.50
2018-12-14T08:56:19.261Z,1.50
2018-12-14T08:58:47.041Z,1.50
2018-12-14T09:01:14.956Z,1.50
2018-12-14T09:03:45.927Z,1.40
2018-12-14T09:06:14.162Z,1.40
2018-12-14T09:08:41.952Z,1.40
2018-12-14T09:11:09.849Z,1.50
2018-12-14T09:13:37.846Z,1.50
2018-12-14T09:16:05.837Z,1.50
2018-12-14T09:18:33.704Z,1.50
2018-12-14T09:21:01.575Z,1.40
2018-12-14T09:23:29.360Z,1.50
2018-12-14T09:25:57.281Z,1.50
2018-12-14T09:28:25.347Z,1.50
2018-12-14T09:30:53.377Z,1.50
2018-12-14T09:33:21.270Z,1.60
2018-12-14T09:35:49.094Z,1.50
2018-12-14T09:38:17.099Z,1.50
2018-12-14T09:40:45.060Z,1.50
2018-12-14T09:43:12.972Z,1.50
2018-12-14T09:45:40.901Z,1.60
2018-12-14T09:48:08.698Z,1.50
2018-12-14T09:50:36.725Z,1.50
2018-12-14T09:53:04.636Z,1.50
2018-12-14T09:55:32.504Z,1.40
2018-12-14T09:58:00.360Z,1.50
2018-12-14T10:00:28.157Z,1.50
2018-12-14T10:02:59.660Z,1.40
2018-12-14T10:05:27.969Z,1.40
2018-12-14T10:07:55.810Z,1.40
2018-12-14T10:10:24.062Z,1.30
2018-12-14T10:12:51.866Z,1.40
2018-12-14T10:15:19.658Z,1.30
2018-12-14T10:17:47.488Z,1.30
2018-12-14T10:20:15.436Z,1.30
2018-12-14T10:22:43.499Z,1.30
2018-12-14T10:25:11.797Z,1.30
2018-12-14T10:27:39.948Z,1.30
2018-12-14T10:30:08.484Z,1.30
2018-12-14T10:32:36.496Z,1.30
2018-12-14T10:35:06.149Z,1.30
2018-12-14T10:37:34.162Z,1.30
2018-12-14T10:40:02.210Z,1.40
2018-12-14T10:42:31.567Z,1.30
2018-12-14T10:44:59.475Z,1.40
2018-12-14T10:47:27.424Z,1.50
2018-12-14T10:49:55.409Z,1.50
2018-12-14T10:52:24.216Z,1.60
2018-12-14T10:54:52.482Z,1.70
2018-12-14T10:57:20.671Z,1.70
2018-12-14T10:59:48.603Z,1.70
2018-12-14T11:02:16.549Z,1.80
2018-12-14T11:04:44.484Z,1.80
2018-12-14T11:07:12.277Z,1.80
2018-12-14T11:09:40.217Z,1.90
2018-12-14T11:12:08.327Z,1.90
2018-12-14T11:14:36.177Z,2.00
2018-12-14T11:17:04.358Z,2.10
2018-12-14T11:19:32.159Z,2.10
2018-12-14T11:22:00.292Z,2.20
2018-12-14T11:24:31.952Z,2.30
2018-12-14T11:26:59.825Z,2.30
2018-12-14T11:29:27.600Z,2.30
2018-12-14T11:31:55.454Z,2.30
2018-12-14T11:34:29.534Z,2.20
2018-12-14T11:36:53.208Z,2.10
2018-12-14T11:39:21.234Z,2.30
2018-12-14T11:41:49.262Z,2.30
2018-12-14T11:44:20.702Z,2.40
2018-12-14T11:46:47.038Z,2.60
2018-12-14T11:49:14.920Z,2.70
2018-12-14T11:51:42.743Z,2.70
2018-12-14T11:54:10.493Z,2.80
2018-12-14T11:56:38.295Z,2.70
2018-12-14T11:59:07.282Z,2.90
2018-12-14T12:01:35.105Z,2.90
2018-12-14T12:04:03.031Z,2.90
2018-12-14T12:06:30.941Z,2.90
2018-12-14T12:08:58.989Z,2.90
2018-12-14T12:11:27.610Z,2.80
2018-12-14T12:13:56.623Z,2.70
2018-12-14T12:16:24.400Z,2.70
2018-12-14T12:18:52.185Z,2.70
2018-12-14T12:21:20.121Z,2.70
2018-12-14T12:23:48.115Z,2.60
2018-12-14T12:26:15.938Z,2.60
2018-12-14T12:28:43.881Z,2.50
2018-12-14T12:31:13.063Z,2.50
2018-12-14T12:33:40.854Z,2.50
2018-12-14T12:36:08.662Z,2.40
2018-12-14T12:38:38.192Z,2.40
2018-12-14T12:41:06.496Z,2.30
2018-12-14T12:43:34.396Z,2.30
2018-12-14T12:46:02.397Z,2.20
2018-12-14T12:48:30.324Z,2.20
2018-12-14T12:51:03.049Z,2.20
2018-12-14T12:53:29.598Z,2.20
2018-12-14T12:55:57.457Z,2.20
2018-12-14T12:58:25.289Z,2.20
2018-12-14T13:00:53.241Z,2.10
2018-12-14T13:03:21.089Z,2.10
2018-12-14T13:05:49.053Z,2.00
2018-12-14T13:08:16.858Z,2.00
2018-12-14T13:10:45.100Z,2.00
2018-12-14T13:13:12.864Z,2.00
2018-12-14T13:15:40.805Z,2.00
2018-12-14T13:18:08.859Z,2.10
2018-12-14T13:20:36.708Z,2.00
2018-12-14T13:23:04.530Z,2.00
2018-12-14T13:25:32.807Z,1.90
2018-12-14T13:28:00.946Z,1.90
2018-12-14T13:30:29.056Z,1.80
2018-12-14T13:32:58.526Z,1.80
2018-12-14T13:35:26.604Z,1.80
2018-12-14T13:37:54.442Z,1.70
2018-12-14T13:40:22.330Z,1.70
2018-12-14T13:42:50.253Z,1.60
2018-12-14T13:45:19.408Z,1.70
2018-12-14T13:47:47.452Z,1.70
2018-12-14T13:50:15.521Z,1.70
2018-12-14T13:52:44.381Z,1.60
2018-12-14T13:55:13.381Z,1.60
2018-12-14T13:57:41.213Z,1.60
2018-12-14T14:00:13.586Z,1.40
2018-12-14T14:02:41.722Z,1.60
2018-12-14T14:05:12.273Z,1.50
2018-12-14T14:07:40.562Z,1.50
2018-12-14T14:10:08.638Z,1.40
2018-12-14T14:12:36.601Z,1.50
2018-12-14T14:15:06.069Z,1.50
2018-12-14T14:17:34.021Z,1.50
2018-12-14T14:20:01.983Z,1.50
2018-12-14T14:22:29.935Z,1.40
2018-12-14T14:24:58.086Z,1.40
2018-12-14T14:27:26.210Z,1.40
2018-12-14T14:29:54.242Z,1.40
2018-12-14T14:32:22.045Z,1.40
2018-12-14T14:34:50.057Z,1.40
2018-12-14T14:37:17.929Z,1.30
2018-12-14T14:39:45.812Z,1.30
2018-12-14T14:42:13.828Z,1.20
2018-12-14T14:44:41.890Z,1.20
2018-12-14T14:47:11.255Z,1.20
2018-12-14T14:49:42.024Z,1.20
2018-12-14T14:52:12.426Z,1.20
2018-12-14T14:54:40.762Z,1.20
2018-12-14T14:57:12.292Z,1.20
2018-12-14T14:59:40.991Z,1.20
2018-12-14T15:02:09.555Z,1.20
2018-12-14T15:04:39.237Z,1.20
2018-12-14T15:07:07.315Z,1.10
2018-12-14T15:09:38.841Z,1.10
2018-12-14T15:12:06.736Z,1.10
2018-12-14T15:14:34.712Z,1.10
2018-12-14T15:17:02.874Z,1.10
2018-12-14T15:19:30.941Z,1.10
2018-12-14T15:22:04.404Z,1.00
2018-12-14T15:24:28.680Z,1.10
2018-12-14T15:26:57.088Z,1.10
2018-12-14T15:29:25.017Z,1.10
2018-12-14T15:31:53.232Z,1.10
2018-12-14T15:34:23.576Z,1.00
2018-12-14T15:36:56.336Z,1.00
2018-12-14T15:39:25.814Z,1.10
2018-12-14T15:41:53.945Z,1.10
2018-12-14T15:44:22.249Z,1.10
2018-12-14T15:46:50.201Z,1.10
2018-12-14T15:49:18.674Z,1.10
2018-12-14T15:51:47.861Z,1.10
2018-12-14T15:59:31.822Z,1.10
2018-12-14T16:01:59.920Z,1.10
2018-12-14T16:04:27.940Z,1.10
2018-12-14T16:07:03.099Z,1.00
2018-12-14T16:09:31.224Z,1.00
2018-12-14T16:11:59.256Z,1.00
2018-12-14T16:14:34.464Z,1.00
2018-12-14T16:17:12.912Z,1.00
2018-12-14T16:19:41.901Z,1.00
2018-12-14T16:22:12.639Z,1.00
2018-12-14T16:24:42.684Z,1.00
2018-12-14T16:27:10.768Z,1.00
2018-12-14T16:29:39.304Z,0.90
2018-12-14T16:32:07.760Z,0.90
2018-12-14T16:34:38.545Z,0.90
2018-12-14T16:37:06.640Z,0.90
2018-12-14T16:39:35.105Z,0.90
2018-12-14T16:42:03.371Z,0.90
2018-12-14T16:44:31.289Z,0.90
2018-12-14T16:47:00.796Z,0.90
2018-12-14T16:49:28.732Z,0.90
2018-12-14T16:51:56.928Z,0.90
2018-12-14T16:54:25.383Z,0.90
2018-12-14T16:57:01.696Z,0.90
2018-12-14T16:59:31.414Z,0.80
2018-12-14T17:02:00.857Z,0.80
2018-12-14T17:04:30.300Z,0.80
2018-12-14T17:06:59.541Z,0.90
2018-12-14T17:09:29.148Z,0.80
2018-12-14T17:11:58.402Z,0.80
2018-12-14T17:14:27.932Z,0.80
2018-12-14T17:16:59.203Z,0.80
2018-12-14T17:19:28.368Z,0.90
2018-12-14T17:21:57.715Z,0.90
2018-12-14T17:24:26.325Z,0.90
2018-12-14T17:26:54.191Z,0.90
2018-12-14T17:29:22.084Z,0.90
2018-12-14T17:31:50.012Z,0.80
2018-12-14T17:34:18.845Z,0.90
2018-12-14T17:36:46.915Z,0.80
2018-12-14T17:39:23.733Z,0.80
2018-12-14T17:41:52.283Z,0.80
2018-12-14T17:44:20.230Z,0.70
2018-12-14T17:46:49.385Z,0.70
2018-12-14T17:49:17.676Z,0.70
2018-12-14T17:51:45.868Z,0.70
2018-12-14T17:54:13.775Z,0.80
2018-12-14T17:56:41.624Z,0.70
2018-12-14T17:59:10.662Z,0.70
2018-12-14T18:01:38.883Z,0.70
2018-12-14T18:04:09.636Z,0.70
2018-12-14T18:06:37.581Z,0.70
2018-12-14T18:09:08.454Z,0.80
2018-12-14T18:11:38.301Z,0.70
2018-12-14T18:14:06.314Z,0.70
2018-12-14T18:16:34.621Z,0.70
2018-12-14T18:19:02.864Z,0.80
2018-12-14T18:21:30.837Z,0.80
2018-12-14T18:23:58.836Z,0.80
2018-12-14T18:26:27.044Z,0.80
2018-12-14T18:28:54.949Z,0.70
2018-12-14T18:31:22.842Z,0.70
2018-12-14T18:33:51.529Z,0.70
2018-12-14T18:36:19.564Z,0.70
2018-12-14T18:38:47.645Z,0.70
2018-12-14T18:41:15.632Z,0.70
2018-12-14T18:43:43.485Z,0.70
2018-12-14T18:46:11.320Z,0.70
2018-12-14T18:48:39.403Z,0.70
2018-12-14T18:51:07.240Z,0.70
2018-12-14T18:53:35.277Z,0.60
2018-12-14T18:56:03.673Z,0.60
2018-12-14T18:58:31.806Z,0.60
2018-12-14T19:01:00.308Z,0.60
2018-12-14T19:03:29.781Z,0.60
2018-12-14T19:05:57.601Z,0.60
2018-12-14T19:08:25.838Z,0.60
2018-12-14T19:10:53.832Z,0.70
2018-12-14T19:13:21.753Z,0.70
2018-12-14T19:15:50.535Z,0.70
2018-12-14T19:18:18.413Z,0.50
2018-12-14T19:20:46.345Z,0.70
2018-12-14T19:23:19.552Z,0.70
2018-12-14T19:25:44.156Z,0.70
2018-12-14T19:28:11.896Z,0.70
2018-12-14T19:30:39.961Z,0.70
2018-12-14T19:33:22.838Z,0.70
2018-12-14T19:35:50.721Z,0.70
2018-12-14T19:38:19.271Z,0.80
2018-12-14T19:40:47.432Z,0.80
2018-12-14T19:43:15.771Z,0.80
2018-12-14T19:45:49.577Z,0.80
2018-12-14T19:48:17.485Z,0.80
2018-12-14T19:50:45.359Z,0.80
2018-12-14T19:53:13.424Z,0.90
2018-12-14T19:55:41.311Z,0.90
2018-12-14T19:58:10.537Z,0.90
2018-12-14T20:00:40.604Z,1.00
2018-12-14T20:03:08.561Z,1.10
2018-12-14T20:05:37.454Z,1.00
2018-12-14T20:08:05.646Z,1.00
2018-12-14T20:10:33.877Z,1.00
2018-12-14T20:13:01.940Z,1.00
2018-12-14T20:15:31.820Z,1.00
2018-12-14T20:18:02.101Z,1.00
2018-12-14T20:20:30.086Z,1.10
2018-12-14T20:22:58.586Z,1.10
2018-12-14T20:25:26.425Z,1.10
2018-12-14T20:27:54.565Z,1.10
2018-12-14T20:30:22.497Z,1.10
2018-12-14T20:32:50.511Z,1.10
2018-12-14T20:35:19.334Z,1.10
2018-12-14T20:37:49.142Z,1.00
2018-12-14T20:40:17.113Z,1.10
2018-12-14T20:42:45.036Z,1.10
2018-12-14T20:45:13.416Z,1.10
2018-12-14T20:47:42.413Z,1.10
2018-12-14T20:50:10.522Z,1.10
2018-12-14T20:52:38.819Z,1.10
2018-12-14T20:55:09.434Z,1.10
2018-12-14T20:57:37.670Z,1.20
2018-12-14T21:00:09.501Z,1.20
2018-12-14T21:02:39.150Z,1.20
2018-12-14T21:05:07.576Z,1.20
2018-12-14T21:07:35.752Z,1.20
2018-12-14T21:10:07.435Z,1.10
2018-12-14T21:12:37.726Z,1.20
2018-12-14T21:15:07.464Z,1.20
2018-12-14T21:20:13.844Z,1.40
2018-12-14T21:22:43.493Z,1.20
2018-12-14T21:25:11.528Z,1.20
2018-12-14T21:27:43.821Z,1.20
2018-12-14T21:30:12.242Z,1.20
2018-12-14T21:32:40.228Z,1.20
2018-12-14T21:35:08.481Z,1.10
2018-12-14T21:37:36.525Z,1.10
2018-12-14T21:40:05.836Z,1.10
2018-12-14T21:42:34.383Z,1.10
2018-12-14T21:45:03.215Z,1.10
2018-12-14T21:47:31.231Z,1.20
2018-12-14T21:49:59.249Z,1.20
2018-12-14T21:52:27.408Z,1.30
2018-12-14T21:54:55.343Z,1.20
2018-12-14T21:57:23.451Z,1.20
2018-12-14T21:59:51.412Z,1.20
2018-12-14T22:02:19.999Z,1.20
2018-12-14T22:04:48.330Z,1.20
2018-12-14T22:07:16.780Z,1.10
2018-12-14T22:09:44.808Z,1.20
2018-12-14T22:12:14.676Z,1.20
2018-12-14T22:14:42.533Z,1.20
2018-12-14T22:17:10.736Z,1.20
2018-12-14T22:19:38.591Z,1.30
2018-12-14T22:22:08.012Z,1.30
2018-12-14T22:27:17.510Z,1.30
2018-12-14T22:29:45.764Z,1.30
2018-12-14T22:32:13.816Z,1.20
2018-12-14T22:34:41.821Z,1.30
2018-12-14T22:37:10.172Z,1.30
2018-12-14T22:39:38.417Z,1.30
2018-12-14T22:42:06.560Z,1.30
2018-12-14T22:44:34.825Z,1.30
2018-12-14T22:47:02.884Z,1.20
2018-12-14T22:49:30.861Z,1.20
2018-12-14T22:51:58.856Z,1.20
2018-12-14T22:54:26.797Z,1.20
2018-12-14T22:56:54.717Z,1.30
2018-12-14T22:59:25.082Z,1.30
2018-12-14T23:01:52.956Z,1.30
2018-12-14T23:04:20.937Z,1.30
2018-12-14T23:06:49.013Z,1.30
2018-12-14T23:09:17.008Z,1.30
2018-12-14T23:11:45.238Z,1.40
2018-12-14T23:14:13.217Z,1.40
2018-12-14T23:16:41.077Z,1.30
2018-12-14T23:19:08.983Z,1.40
2018-12-14T23:21:37.414Z,1.40
2018-12-14T23:24:09.241Z,1.40
2018-12-14T23:26:38.400Z,1.40
2018-12-14T23:29:06.261Z,1.40
2018-12-14T23:31:34.134Z,1.50
2018-12-14T23:34:02.017Z,1.50
2018-12-14T23:36:29.877Z,1.40
2018-12-14T23:38:57.954Z,1.50
2018-12-14T23:41:26.080Z,1.50
2018-12-14T23:43:53.927Z,1.50
2018-12-14T23:46:21.810Z,1.50
2018-12-14T23:48:49.674Z,1.50
2018-12-14T23:51:17.515Z,1.50
2018-12-14T23:53:45.439Z,1.60
2018-12-14T23:56:13.377Z,1.60
2018-12-14T23:58:41.338Z,1.60
